Time;durP1;ratioP1;P1;durP2;ratioP2;P2;SDS_P1;SDS_P2;PMS_P1;PMS_P2;Temp;Humidity;BMP_temperature;BMP_pressure;BME280_temperature;BME280_humidity;BME280_pressure;Samples;Min_cycle;Max_cycle;Signal;HPM_P1;HPM_P2
2021/10/20 00:02:18;;;;;;;6.33;2.73;;;;;;;8.96;93.67;96504.34;5021334;28;20033;-76
2021/10/20 00:04:44;;;;;;;4.87;2.53;;;;;;;8.94;94.29;96498.41;5034464;28;20040;-76
2021/10/20 00:07:10;;;;;;;4.83;2.60;;;;;;;8.89;94.34;96503.28;5035803;28;20030;-76
2021/10/20 00:09:36;;;;;;;6.57;3.50;;;;;;;8.90;93.15;96494.41;5014790;28;20037;-76
2021/10/20 00:12:02;;;;;;;8.10;2.90;;;;;;;8.94;92.50;96495.78;5048822;28;20172;-76
2021/10/20 00:14:29;;;;;;;7.93;3.53;;;;;;;8.98;91.45;96495.34;5034300;28;20071;-76
2021/10/20 00:16:55;;;;;;;10.33;4.03;;;;;;;9.11;90.28;96495.03;5015202;28;20028;-76
2021/10/20 00:19:21;;;;;;;8.60;3.80;;;;;;;9.16;90.15;96498.06;5004565;28;20082;-76
2021/10/20 00:21:47;;;;;;;8.87;4.47;;;;;;;9.19;90.01;96497.78;5031351;28;20022;-77
2021/10/20 00:24:13;;;;;;;10.63;4.40;;;;;;;9.18;90.05;96490.03;5030210;28;20064;-76
2021/10/20 00:26:39;;;;;;;6.67;3.10;;;;;;;9.25;90.20;96491.09;5025714;28;20025;-76
2021/10/20 00:29:05;;;;;;;5.73;3.07;;;;;;;9.19;90.75;96486.47;5014633;28;20525;-75
2021/10/20 00:31:30;;;;;;;7.10;3.60;;;;;;;9.15;90.76;96488.53;5017338;28;20120;-75
2021/10/20 00:33:56;;;;;;;8.50;3.47;;;;;;;9.18;90.71;96480.34;5042154;28;20111;-75
2021/10/20 00:36:22;;;;;;;9.73;3.93;;;;;;;9.09;91.59;96486.50;5032680;28;20034;-74
2021/10/20 00:38:48;;;;;;;8.20;4.40;;;;;;;9.00;92.26;96476.84;5025646;28;20037;-75
2021/10/20 00:41:13;;;;;;;10.73;3.90;;;;;;;8.87;93.17;96476.34;5028018;28;20463;-75
2021/10/20 00:43:41;;;;;;;17.47;7.43;;;;;;;8.76;94.18;96466.84;5031308;28;20027;-74
2021/10/20 00:46:07;;;;;;;36.70;11.33;;;;;;;8.69;95.26;96471.03;5038696;28;20025;-76
2021/10/20 00:48:33;;;;;;;34.73;14.30;;;;;;;8.62;95.41;96467.31;5032022;28;20036;-76
2021/10/20 00:50:59;;;;;;;34.40;12.30;;;;;;;8.54;95.81;96465.38;5025300;28;20025;-76
2021/10/20 00:53:24;;;;;;;24.13;7.97;;;;;;;8.56;95.82;96463.44;5025084;28;20517;-76
2021/10/20 00:55:50;;;;;;;27.27;10.27;;;;;;;8.51;96.10;96457.78;5028698;28;20021;-76
2021/10/20 00:58:17;;;;;;;12.13;5.30;;;;;;;8.44;96.74;96449.66;5032963;28;20072;-76
2021/10/20 01:00:42;;;;;;;8.70;4.23;;;;;;;8.40;96.34;96457.97;5024605;28;20030;-76
2021/10/20 01:03:08;;;;;;;7.10;3.10;;;;;;;8.38;96.53;96446.78;5058887;28;20045;-75
2021/10/20 01:05:34;;;;;;;7.57;3.10;;;;;;;8.39;96.53;96440.59;5009782;28;20033;-76
2021/10/20 01:08:00;;;;;;;7.97;4.03;;;;;;;8.38;96.27;96446.78;5058484;28;20038;-76
2021/10/20 01:10:25;;;;;;;7.90;3.73;;;;;;;8.32;96.49;96444.72;5031317;28;20061;-76
2021/10/20 01:12:51;;;;;;;6.93;3.40;;;;;;;8.30;96.35;96446.63;5034752;28;20056;-76
2021/10/20 01:15:20;;;;;;;7.63;3.23;;;;;;;8.26;96.79;96441.66;5063137;28;20037;-76
2021/10/20 01:17:47;;;;;;;24.57;8.93;;;;;;;8.34;96.07;96437.50;5035465;28;20025;-75
2021/10/20 01:20:13;;;;;;;30.27;11.27;;;;;;;8.42;94.57;96440.31;5034386;28;20470;-74
2021/10/20 01:22:39;;;;;;;29.07;11.47;;;;;;;8.42;94.49;96437.69;5038243;28;20026;-74
2021/10/20 01:25:06;;;;;;;29.97;10.60;;;;;;;8.54;93.56;96428.69;5029255;28;20028;-74
2021/10/20 01:27:32;;;;;;;14.67;5.73;;;;;;;8.61;93.01;96424.50;5044747;28;20039;-74
2021/10/20 01:29:59;;;;;;;17.07;7.30;;;;;;;8.63;92.46;96433.06;5024480;28;20025;-74
2021/10/20 01:32:28;;;;;;;14.10;5.43;;;;;;;8.64;92.38;96428.66;5043798;28;20056;-74
2021/10/20 01:34:54;;;;;;;13.10;5.20;;;;;;;8.80;91.30;96422.81;5043139;28;20026;-74
2021/10/20 01:37:24;;;;;;;8.63;3.90;;;;;;;8.94;90.03;96407.44;5037215;28;20132;-74
2021/10/20 01:39:56;;;;;;;8.33;2.80;;;;;;;9.01;89.76;96409.47;5040605;28;20028;-74
2021/10/20 01:42:22;;;;;;;6.67;3.07;;;;;;;9.03;89.26;96404.91;5039674;28;20033;-74
2021/10/20 01:44:48;;;;;;;6.70;2.80;;;;;;;8.92;90.14;96400.66;5041142;28;20107;-75
2021/10/20 01:47:14;;;;;;;8.50;2.67;;;;;;;8.88;90.33;96383.56;5036475;28;20120;-76
2021/10/20 01:49:39;;;;;;;4.67;2.30;;;;;;;8.79;91.18;96384.47;5035397;28;20038;-75
2021/10/20 01:52:05;;;;;;;5.63;2.47;;;;;;;8.69;91.54;96377.47;5028801;28;20045;-75
2021/10/20 01:54:31;;;;;;;5.27;3.17;;;;;;;8.56;92.55;96378.75;5030790;28;20052;-77
2021/10/20 01:56:57;;;;;;;4.50;2.20;;;;;;;8.44;93.49;96372.84;5027299;28;20025;-74
2021/10/20 01:59:23;;;;;;;3.77;2.17;;;;;;;8.38;93.94;96366.34;5044290;28;20112;-73
2021/10/20 02:01:48;;;;;;;4.23;2.30;;;;;;;8.29;94.30;96363.75;5027559;28;20037;-74
2021/10/20 02:04:34;;;;;;;7.70;2.80;;;;;;;8.24;94.94;96354.50;5062529;28;20034;-74
2021/10/20 02:07:00;;;;;;;4.20;2.17;;;;;;;8.17;95.69;96350.81;5024781;28;20029;-74
2021/10/20 02:09:26;;;;;;;4.37;2.30;;;;;;;8.16;96.07;96346.53;5031486;28;20048;-73
2021/10/20 02:11:51;;;;;;;4.73;2.43;;;;;;;8.17;95.65;96347.38;5028848;28;20037;-74
2021/10/20 02:14:17;;;;;;;5.43;2.87;;;;;;;8.13;95.68;96343.38;5039330;28;20376;-74
2021/10/20 02:16:43;;;;;;;5.93;2.80;;;;;;;8.09;96.02;96334.97;5013610;28;20029;-74
2021/10/20 02:19:12;;;;;;;5.27;2.17;;;;;;;8.04;96.11;96334.56;5064105;28;20321;-73
2021/10/20 02:21:37;;;;;;;5.03;2.70;;;;;;;8.09;95.71;96328.91;5016744;28;20607;-74
2021/10/20 02:24:04;;;;;;;5.20;2.53;;;;;;;8.05;95.75;96333.63;5037400;28;20080;-73
2021/10/20 02:26:29;;;;;;;6.07;3.00;;;;;;;8.04;96.12;96326.72;5028531;28;20033;-74
2021/10/20 02:28:55;;;;;;;5.53;2.73;;;;;;;8.01;96.44;96321.75;5039197;28;20033;-74
2021/10/20 02:31:21;;;;;;;4.57;2.40;;;;;;;8.01;95.85;96319.97;5037444;28;20590;-74
2021/10/20 02:33:46;;;;;;;5.60;3.03;;;;;;;8.05;95.16;96312.66;5038812;28;20033;-74
2021/10/20 02:36:17;;;;;;;5.57;2.50;;;;;;;8.15;93.81;96307.38;5037729;28;20109;-74
2021/10/20 02:38:43;;;;;;;4.80;2.30;;;;;;;8.16;94.15;96304.63;5037076;28;20039;-74
2021/10/20 02:41:09;;;;;;;5.47;2.63;;;;;;;8.37;92.44;96300.97;5029290;28;20565;-74
2021/10/20 02:43:37;;;;;;;6.37;2.67;;;;;;;8.41;92.48;96299.75;5024155;28;20029;-74
2021/10/20 02:46:03;;;;;;;4.90;2.37;;;;;;;8.47;92.14;96292.13;5029287;28;20021;-74
2021/10/20 02:48:31;;;;;;;5.63;2.67;;;;;;;8.58;91.75;96293.72;5040558;28;20088;-74
2021/10/20 02:50:56;;;;;;;4.83;2.27;;;;;;;8.60;91.40;96286.56;5037442;28;20834;-74
2021/10/20 02:53:22;;;;;;;4.83;2.43;;;;;;;8.57;90.77;96286.84;5030679;28;20121;-74
2021/10/20 02:55:48;;;;;;;4.30;2.17;;;;;;;8.55;91.44;96290.56;5030412;28;20053;-73
2021/10/20 02:58:13;;;;;;;5.17;2.53;;;;;;;8.57;91.23;96289.47;5037314;28;20116;-74
2021/10/20 03:00:39;;;;;;;5.97;2.40;;;;;;;8.50;92.05;96291.03;5038802;28;20023;-73
2021/10/20 03:03:05;;;;;;;8.37;2.80;;;;;;;8.51;91.98;96290.03;5020863;28;20026;-74
2021/10/20 03:05:30;;;;;;;4.50;2.10;;;;;;;8.50;91.96;96291.03;5062540;28;20037;-74
2021/10/20 03:07:56;;;;;;;5.50;2.17;;;;;;;8.52;92.00;96289.09;5039360;28;20522;-74
2021/10/20 03:10:22;;;;;;;6.10;2.20;;;;;;;8.40;92.85;96285.00;5037712;28;20486;-74
2021/10/20 03:12:48;;;;;;;5.00;2.30;;;;;;;8.35;92.97;96287.19;5034623;28;20037;-74
2021/10/20 03:15:14;;;;;;;4.23;2.27;;;;;;;8.27;93.00;96287.91;5023568;28;20029;-74
2021/10/20 03:17:40;;;;;;;19.70;16.53;;;;;;;8.20;94.13;96286.84;5035981;28;20518;-74
2021/10/20 03:20:09;;;;;;;24.40;18.37;;;;;;;8.22;94.21;96293.59;5032203;28;20044;-73
2021/10/20 03:22:43;;;;;;;17.57;14.73;;;;;;;8.39;92.62;96289.41;5034196;28;20530;-73
2021/10/20 03:25:10;;;;;;;38.17;25.23;;;;;;;8.35;93.12;96300.28;5033186;28;20021;-73
2021/10/20 03:27:44;;;;;;;88.33;48.53;;;;;;;8.39;93.12;96297.28;5029168;28;20016;-73
2021/10/20 03:30:11;;;;;;;13.87;9.83;;;;;;;8.43;92.78;96285.53;5029099;28;20120;-73
2021/10/20 03:32:36;;;;;;;19.10;13.33;;;;;;;8.55;92.40;96286.19;5014594;28;20486;-73
2021/10/20 03:35:03;;;;;;;23.53;15.20;;;;;;;8.61;92.15;96282.97;5028985;28;20037;-73
2021/10/20 03:37:28;;;;;;;22.70;13.97;;;;;;;8.69;91.83;96290.94;5039001;28;20029;-73
2021/10/20 03:39:54;;;;;;;6.73;4.03;;;;;;;8.78;90.96;96283.16;5010881;28;20033;-74
2021/10/20 03:42:20;;;;;;;5.03;2.80;;;;;;;8.77;91.23;96277.09;5034878;28;20021;-73
2021/10/20 03:44:45;;;;;;;4.57;2.47;;;;;;;8.81;91.16;96272.38;5036608;28;20177;-74
2021/10/20 03:47:12;;;;;;;6.23;3.23;;;;;;;8.81;91.57;96280.25;5033833;28;20033;-74
2021/10/20 03:49:37;;;;;;;6.07;2.90;;;;;;;8.71;92.74;96278.50;5031686;28;20025;-74
2021/10/20 03:52:03;;;;;;;5.50;3.03;;;;;;;8.64;92.93;96266.94;5020401;28;20452;-73
2021/10/20 03:54:29;;;;;;;4.90;2.83;;;;;;;8.60;93.66;96268.22;5032173;28;20390;-73
2021/10/20 03:56:54;;;;;;;7.43;3.17;;;;;;;8.58;93.39;96257.03;5041909;28;20079;-73
2021/10/20 03:59:20;;;;;;;4.43;2.27;;;;;;;8.47;94.47;96257.25;5022334;28;20117;-73
2021/10/20 04:01:46;;;;;;;7.00;2.53;;;;;;;8.43;94.25;96248.03;5027231;28;20804;-73
2021/10/20 04:04:11;;;;;;;5.03;2.47;;;;;;;8.36;94.65;96245.13;5032420;28;20033;-72
2021/10/20 04:06:38;;;;;;;5.87;2.60;;;;;;;8.23;95.42;96240.22;5025208;28;20032;-73
2021/10/20 04:09:04;;;;;;;7.10;2.90;;;;;;;8.14;96.08;96238.44;5041092;28;20557;-73
2021/10/20 04:11:29;;;;;;;4.93;2.80;;;;;;;8.08;95.92;96244.28;5014831;28;20108;-74
2021/10/20 04:13:56;;;;;;;10.30;4.43;;;;;;;8.06;96.46;96230.50;5040182;28;20390;-73
2021/10/20 04:16:22;;;;;;;5.57;2.80;;;;;;;8.03;96.64;96231.59;5036079;28;20124;-73
2021/10/20 04:18:48;;;;;;;5.57;2.70;;;;;;;8.05;96.61;96239.34;5027594;28;20060;-73
2021/10/20 04:21:13;;;;;;;7.50;3.00;;;;;;;7.96;96.87;96234.94;5032340;28;20036;-73
2021/10/20 04:23:39;;;;;;;4.70;2.67;;;;;;;7.92;97.48;96238.81;5037576;28;20052;-73
2021/10/20 04:26:05;;;;;;;5.13;3.00;;;;;;;7.83;97.81;96232.63;5028061;28;20040;-73
2021/10/20 04:28:30;;;;;;;5.27;2.80;;;;;;;7.94;97.73;96226.41;5027795;28;20029;-73
2021/10/20 04:30:56;;;;;;;5.97;3.03;;;;;;;8.13;95.92;96215.03;5031156;28;20083;-73
2021/10/20 04:33:22;;;;;;;6.20;3.20;;;;;;;8.22;95.01;96209.75;5042007;28;20052;-74
2021/10/20 04:35:47;;;;;;;4.77;2.77;;;;;;;8.27;94.53;96201.44;5028426;28;20061;-74
2021/10/20 04:38:15;;;;;;;5.30;2.53;;;;;;;8.30;94.44;96203.78;5022625;28;20041;-74
2021/10/20 04:40:40;;;;;;;11.93;5.83;;;;;;;8.32;94.33;96199.22;5019633;28;20028;-73
2021/10/20 04:43:06;;;;;;;7.90;3.43;;;;;;;8.30;94.79;96202.97;5022096;28;20025;-74
2021/10/20 04:45:32;;;;;;;8.10;3.23;;;;;;;8.29;94.79;96199.53;5025905;28;20030;-74
2021/10/20 04:47:58;;;;;;;5.93;3.20;;;;;;;8.29;95.07;96204.75;5030642;28;20534;-73
2021/10/20 04:50:25;;;;;;;7.67;2.90;;;;;;;8.24;95.88;96201.75;5026860;28;20036;-74
2021/10/20 04:52:51;;;;;;;6.53;3.20;;;;;;;8.29;95.52;96190.84;5029308;28;20089;-74
2021/10/20 04:55:17;;;;;;;8.70;3.90;;;;;;;8.37;94.59;96190.91;5028900;28;20385;-74
2021/10/20 04:57:48;;;;;;;7.90;4.07;;;;;;;8.32;94.93;96187.94;5029013;28;20033;-75
2021/10/20 05:00:15;;;;;;;25.53;15.07;;;;;;;8.40;93.97;96182.81;5024781;28;20030;-72
2021/10/20 05:02:40;;;;;;;11.30;6.83;;;;;;;8.47;93.31;96181.25;5021261;28;20079;-74
2021/10/20 05:05:08;;;;;;;11.33;5.57;;;;;;;8.46;93.03;96185.66;5021215;28;20441;-74
2021/10/20 05:07:48;;;;;;;6.80;3.30;;;;;;;8.46;93.03;96187.47;5028899;28;20725;-74
2021/10/20 05:10:14;;;;;;;7.67;3.77;;;;;;;8.45;92.89;96185.78;5024423;28;20116;-74
2021/10/20 05:12:40;;;;;;;5.37;2.90;;;;;;;8.50;95.78;96187.00;5035197;28;20104;-74
2021/10/20 05:15:06;;;;;;;7.00;3.03;;;;;;;8.35;93.91;96187.59;5029139;28;20430;-73
2021/10/20 05:17:31;;;;;;;10.17;3.17;;;;;;;8.32;93.98;96185.31;5022822;28;20120;-73
2021/10/20 05:19:57;;;;;;;7.47;2.73;;;;;;;8.42;93.89;96186.13;5031969;28;20033;-74
2021/10/20 05:22:23;;;;;;;6.77;3.20;;;;;;;8.46;93.64;96184.84;5031564;28;20021;-73
2021/10/20 05:24:48;;;;;;;7.33;3.27;;;;;;;8.53;93.35;96185.91;5030923;28;20457;-72
2021/10/20 05:27:14;;;;;;;8.27;3.00;;;;;;;8.45;93.81;96184.03;5022061;28;20343;-74
2021/10/20 05:29:40;;;;;;;5.17;2.70;;;;;;;8.33;94.34;96185.16;5033037;28;20503;-74
2021/10/20 05:32:05;;;;;;;8.90;3.77;;;;;;;8.18;95.47;96176.97;5023498;28;20088;-74
2021/10/20 05:34:31;;;;;;;6.90;3.37;;;;;;;8.04;96.48;96180.88;5030122;28;20088;-74
2021/10/20 05:36:57;;;;;;;6.60;3.20;;;;;;;7.90;97.29;96183.16;5034496;28;20071;-74
2021/10/20 05:39:24;;;;;;;6.40;3.17;;;;;;;7.80;98.05;96184.00;5021952;28;20931;-74
2021/10/20 05:41:50;;;;;;;7.57;4.30;;;;;;;7.66;98.32;96181.84;5034515;28;20179;-74
2021/10/20 05:44:17;;;;;;;6.77;3.37;;;;;;;7.51;99.73;96178.03;5031246;28;20045;-74
2021/10/20 05:46:43;;;;;;;10.30;4.30;;;;;;;7.44;100.00;96182.16;5030142;28;20109;-74
2021/10/20 05:49:09;;;;;;;7.37;3.53;;;;;;;7.41;100.00;96171.97;5019640;28;20043;-74
2021/10/20 05:51:35;;;;;;;10.07;4.20;;;;;;;7.38;100.00;96174.88;5023429;28;20029;-74
2021/10/20 05:54:00;;;;;;;12.23;4.70;;;;;;;7.46;100.00;96173.22;5030893;28;20529;-74
2021/10/20 05:56:26;;;;;;;8.80;4.50;;;;;;;7.62;99.26;96171.81;5024027;28;20033;-74
2021/10/20 05:58:51;;;;;;;10.13;4.50;;;;;;;7.76;98.43;96166.94;5027967;28;20236;-74
2021/10/20 06:01:19;;;;;;;10.77;4.23;;;;;;;7.78;98.46;96169.44;5031407;28;20060;-74
2021/10/20 06:03:44;;;;;;;8.23;3.73;;;;;;;7.83;98.17;96166.38;5032057;28;20030;-74
2021/10/20 06:06:10;;;;;;;9.57;4.57;;;;;;;7.96;97.06;96182.56;5031070;28;20026;-74
2021/10/20 06:08:36;;;;;;;8.13;4.10;;;;;;;7.96;97.07;96169.47;5026805;28;20033;-73
2021/10/20 06:11:01;;;;;;;7.17;4.27;;;;;;;8.05;96.59;96168.63;5036287;28;20029;-75
2021/10/20 06:13:27;;;;;;;9.63;3.90;;;;;;;8.12;95.85;96172.31;5039775;28;20037;-74
2021/10/20 06:15:53;;;;;;;8.43;3.87;;;;;;;8.20;94.79;96172.38;5028537;28;20017;-74
2021/10/20 06:18:19;;;;;;;9.40;3.73;;;;;;;8.30;94.29;96166.28;5030519;28;20660;-74
2021/10/20 06:20:44;;;;;;;7.27;3.63;;;;;;;8.43;92.90;96166.78;5052345;28;20032;-74
2021/10/20 06:23:10;;;;;;;10.63;4.60;;;;;;;8.46;92.85;96175.19;5034220;28;20037;-74
2021/10/20 06:25:36;;;;;;;9.17;3.67;;;;;;;8.53;92.72;96164.09;5027899;28;20028;-74
2021/10/20 06:28:02;;;;;;;7.73;3.80;;;;;;;8.58;92.43;96165.28;5033665;28;20540;-74
2021/10/20 06:30:28;;;;;;;8.40;4.30;;;;;;;8.69;91.58;96170.34;5032959;28;20017;-75
2021/10/20 06:32:53;;;;;;;7.27;3.50;;;;;;;8.97;89.58;96157.13;5032919;28;20035;-74
2021/10/20 06:35:19;;;;;;;6.67;3.13;;;;;;;9.35;87.27;96165.63;5036099;28;20058;-74
2021/10/20 06:37:47;;;;;;;7.27;3.33;;;;;;;9.83;84.91;96172.19;5036850;28;20111;-74
2021/10/20 06:40:13;;;;;;;8.17;3.73;;;;;;;10.36;82.06;96158.81;5035928;28;20032;-73
2021/10/20 06:42:39;;;;;;;7.47;3.60;;;;;;;10.68;80.60;96159.03;5034699;28;20026;-74
2021/10/20 06:45:06;;;;;;;7.40;3.17;;;;;;;11.02;78.90;96157.09;5017684;28;20029;-75
2021/10/20 06:47:31;;;;;;;9.20;3.87;;;;;;;11.36;76.73;96148.22;5029590;28;20025;-74
2021/10/20 06:49:57;;;;;;;6.83;3.97;;;;;;;11.66;75.31;96159.03;5018152;28;20514;-74
2021/10/20 06:52:23;;;;;;;6.90;3.60;;;;;;;12.11;73.31;96147.91;5037663;28;20060;-75
2021/10/20 06:54:48;;;;;;;11.90;4.70;;;;;;;12.56;71.92;96145.56;5026738;28;20036;-75
2021/10/20 06:57:14;;;;;;;18.17;8.47;;;;;;;13.30;69.79;96144.06;5023979;28;20033;-75
2021/10/20 06:59:41;;;;;;;35.67;17.33;;;;;;;13.61;68.31;96149.22;5034818;28;20019;-74
2021/10/20 07:02:07;;;;;;;34.43;15.90;;;;;;;13.97;67.85;96153.81;5038290;28;20084;-74
2021/10/20 07:04:32;;;;;;;11.57;6.03;;;;;;;14.11;65.94;96157.47;5015391;28;21037;-75
2021/10/20 07:06:58;;;;;;;10.23;4.70;;;;;;;14.17;64.84;96151.44;5021478;28;20418;-75
2021/10/20 07:09:24;;;;;;;9.27;4.20;;;;;;;14.49;64.84;96149.41;5034034;28;20065;-75
2021/10/20 07:11:49;;;;;;;11.17;4.07;;;;;;;14.76;64.54;96154.03;5010570;28;20025;-75
2021/10/20 07:14:15;;;;;;;7.57;3.67;;;;;;;15.42;62.70;96147.69;5038237;28;20659;-75
2021/10/20 07:16:41;;;;;;;6.40;3.00;;;;;;;15.87;60.72;96142.97;5012434;28;20106;-74
2021/10/20 07:19:07;;;;;;;6.30;3.33;;;;;;;16.34;60.03;96144.06;5034534;28;20033;-75
2021/10/20 07:21:36;;;;;;;6.13;3.17;;;;;;;16.10;59.70;96151.47;5032636;28;20677;-75
2021/10/20 07:24:02;;;;;;;5.07;2.75;;;;;;;16.04;59.34;96149.59;5034665;28;20030;-75
2021/10/20 07:26:28;;;;;;;7.18;3.92;;;;;;;15.86;60.06;96147.47;5071690;28;20576;-75
2021/10/20 07:28:54;;;;;;;5.18;2.53;;;;;;;16.02;58.59;96144.47;5024581;28;20647;-75
2021/10/20 07:31:20;;;;;;;6.55;2.92;;;;;;;15.86;58.60;96150.13;5030736;28;20057;-75
2021/10/20 07:33:46;;;;;;;5.55;3.00;;;;;;;16.39;56.51;96138.94;5029677;28;20017;-74
2021/10/20 07:36:11;;;;;;;7.32;2.70;;;;;;;16.78;55.54;96146.28;5028928;28;20462;-74
2021/10/20 07:38:37;;;;;;;5.00;2.75;;;;;;;16.59;55.88;96145.16;5027387;28;20017;-74
2021/10/20 07:41:03;;;;;;;5.70;2.88;;;;;;;16.68;56.43;96137.84;5031879;28;20581;-75
2021/10/20 07:43:29;;;;;;;5.40;3.30;;;;;;;16.97;54.32;96142.03;5034642;28;20034;-75
2021/10/20 07:45:56;;;;;;;5.65;3.20;;;;;;;17.06;54.72;96146.13;5037901;28;20043;-75
2021/10/20 07:48:22;;;;;;;6.68;3.15;;;;;;;17.41;54.27;96138.00;5026542;28;20490;-75
2021/10/20 07:50:48;;;;;;;5.93;3.33;;;;;;;17.13;54.47;96144.28;5041238;28;20047;-74
2021/10/20 07:53:13;;;;;;;5.75;3.05;;;;;;;17.26;53.64;96124.88;5032324;28;20035;-74
2021/10/20 07:55:39;;;;;;;5.68;2.70;;;;;;;17.54;54.26;96138.00;5026307;28;20384;-74
2021/10/20 07:58:05;;;;;;;5.75;2.90;;;;;;;17.02;54.66;96139.59;5030925;28;20078;-74
2021/10/20 08:00:31;;;;;;;6.63;3.10;;;;;;;17.72;52.92;96131.22;5026871;28;20041;-74
2021/10/20 08:02:57;;;;;;;6.30;3.40;;;;;;;17.42;51.84;96127.16;5041187;28;20040;-74
2021/10/20 08:05:23;;;;;;;6.63;3.10;;;;;;;17.90;52.22;96118.13;5023083;28;20045;-74
2021/10/20 08:07:51;;;;;;;5.05;3.03;;;;;;;17.87;52.59;96116.72;5025621;28;20064;-74
2021/10/20 08:10:20;;;;;;;5.78;2.63;;;;;;;17.00;52.59;96117.72;5024491;28;20028;-74
2021/10/20 08:12:47;;;;;;;6.20;3.00;;;;;;;17.68;51.41;96120.19;5026733;28;20026;-74
2021/10/20 08:15:14;;;;;;;7.47;4.20;;;;;;;18.29;49.52;96105.75;5033531;28;20083;-74
2021/10/20 08:17:41;;;;;;;10.23;5.72;;;;;;;17.34;51.42;96102.63;5032202;28;20112;-74
2021/10/20 08:20:09;;;;;;;7.53;4.05;;;;;;;17.57;50.56;96099.53;5026703;28;20039;-75
2021/10/20 08:22:36;;;;;;;10.10;4.85;;;;;;;18.13;50.23;96086.53;5037261;28;20037;-74
2021/10/20 08:25:04;;;;;;;16.85;8.27;;;;;;;18.49;48.48;96077.19;5025769;28;20069;-74
2021/10/20 08:27:30;;;;;;;32.83;16.35;;;;;;;18.00;50.11;96083.09;5025030;28;20034;-75
2021/10/20 08:29:56;;;;;;;27.98;15.85;;;;;;;18.08;51.32;96089.03;5053954;28;20096;-75
2021/10/20 08:32:22;;;;;;;18.45;10.63;;;;;;;18.57;50.92;96076.91;5021904;28;20032;-75
2021/10/20 08:34:48;;;;;;;15.10;7.90;;;;;;;18.58;49.49;96073.25;5023789;28;20025;-74
2021/10/20 08:37:14;;;;;;;11.38;5.40;;;;;;;18.58;51.92;96078.56;5029525;28;20036;-74
2021/10/20 08:39:40;;;;;;;8.10;4.47;;;;;;;19.08;49.91;96081.38;5031500;28;20017;-74
2021/10/20 08:42:06;;;;;;;5.63;2.95;;;;;;;19.47;47.88;96079.41;5031168;28;20375;-74
2021/10/20 08:44:32;;;;;;;6.53;3.17;;;;;;;19.46;46.88;96084.97;5029473;28;20038;-75
2021/10/20 08:46:58;;;;;;;5.40;3.17;;;;;;;19.54;45.38;96074.81;5030482;28;20025;-74
2021/10/20 08:49:25;;;;;;;6.43;3.25;;;;;;;19.97;45.08;96059.84;5030532;28;20068;-74
2021/10/20 08:51:51;;;;;;;6.90;3.45;;;;;;;19.68;46.21;96062.19;5025629;28;20032;-75
2021/10/20 08:54:18;;;;;;;6.22;3.45;;;;;;;20.46;44.79;96052.69;5032716;28;20032;-75
2021/10/20 08:56:45;;;;;;;5.43;3.25;;;;;;;20.98;44.80;96058.34;5031057;28;20099;-75
2021/10/20 08:59:12;;;;;;;5.20;2.85;;;;;;;19.91;45.16;96064.22;5019751;28;20042;-75
2021/10/20 09:01:39;;;;;;;6.43;2.55;;;;;;;19.72;44.89;96079.41;5032168;28;20036;-75
2021/10/20 09:04:06;;;;;;;6.05;2.30;;;;;;;20.92;43.78;96068.13;5019411;28;20446;-75
2021/10/20 09:06:32;;;;;;;4.88;2.63;;;;;;;20.35;44.84;96064.94;5022850;28;20536;-75
2021/10/20 09:09:02;;;;;;;5.68;2.65;;;;;;;20.20;44.39;96069.88;5032723;28;20033;-76
2021/10/20 09:11:34;;;;;;;5.40;2.55;;;;;;;20.18;45.57;96067.41;5027157;28;20452;-76
2021/10/20 09:14:06;;;;;;;5.25;2.25;;;;;;;19.44;45.82;96074.50;5019063;28;20033;-76
2021/10/20 09:16:35;;;;;;;7.82;2.90;;;;;;;19.48;46.02;96073.06;5022114;28;20815;-75
2021/10/20 09:19:11;;;;;;;6.45;2.60;;;;;;;19.51;46.80;96077.91;5029342;28;20731;-75
2021/10/20 09:21:51;;;;;;;5.65;2.70;;;;;;;18.73;48.83;96086.31;5033855;28;20087;-75
2021/10/20 09:24:17;;;;;;;5.68;2.42;;;;;;;18.92;49.04;96073.09;5033566;28;20041;-76
2021/10/20 09:26:43;;;;;;;7.97;2.40;;;;;;;20.01;47.06;96061.84;5027353;28;20025;-75
2021/10/20 09:29:26;;;;;;;4.72;3.03;;;;;;;19.96;45.64;96037.69;5038924;28;20033;-77
2021/10/20 09:31:52;;;;;;;6.65;3.33;;;;;;;19.96;44.91;96031.53;5021992;28;20045;-75
2021/10/20 09:34:18;;;;;;;3.83;2.33;;;;;;;19.86;44.78;96029.41;5035808;28;20517;-76
2021/10/20 09:36:44;;;;;;;7.45;3.08;;;;;;;19.76;44.67;96029.09;5022323;28;20037;-76
2021/10/20 09:39:11;;;;;;;4.78;2.75;;;;;;;20.80;42.68;96026.38;5037404;28;20045;-75
2021/10/20 09:41:37;;;;;;;4.10;2.15;;;;;;;21.11;41.55;96031.41;5027625;28;20029;-75
2021/10/20 09:44:08;;;;;;;5.30;2.63;;;;;;;20.98;41.51;96033.47;5033576;28;20025;-76
2021/10/20 09:46:42;;;;;;;5.82;2.50;;;;;;;20.96;41.55;96015.00;5037615;28;20570;-77
2021/10/20 09:49:22;;;;;;;6.00;2.67;;;;;;;20.05;42.73;96010.69;5017259;28;20040;-75
2021/10/20 09:51:58;;;;;;;5.10;2.70;;;;;;;20.55;43.89;96019.28;5033749;28;20036;-76
2021/10/20 09:54:29;;;;;;;5.10;2.42;;;;;;;20.61;43.39;96023.75;5069235;28;20068;-76
2021/10/20 09:56:56;;;;;;;5.40;2.38;;;;;;;20.21;43.43;96010.06;5034726;28;20490;-76
2021/10/20 09:59:26;;;;;;;5.15;2.33;;;;;;;20.47;44.46;96003.56;5033101;28;20018;-76
2021/10/20 10:01:52;;;;;;;4.55;2.35;;;;;;;19.71;44.17;95992.38;5032709;28;20057;-76
2021/10/20 10:04:18;;;;;;;5.28;2.67;;;;;;;19.85;44.81;95997.56;5017969;28;20417;-77
2021/10/20 10:06:45;;;;;;;6.43;2.20;;;;;;;20.09;45.14;96001.22;5033972;28;20033;-76
2021/10/20 10:09:11;;;;;;;4.82;2.20;;;;;;;19.51;46.05;95992.56;5030354;28;20640;-76
2021/10/20 10:11:46;;;;;;;4.22;2.40;;;;;;;20.36;44.41;95983.81;5038914;28;20077;-76
2021/10/20 10:14:14;;;;;;;5.13;2.13;;;;;;;21.40;42.97;95970.06;5022469;28;20127;-77
2021/10/20 10:16:42;;;;;;;5.53;2.40;;;;;;;22.15;41.65;95982.63;5036191;28;20501;-76
2021/10/20 10:19:09;;;;;;;4.63;2.15;;;;;;;22.97;38.90;95979.56;5035192;28;20042;-76
2021/10/20 10:21:37;;;;;;;3.78;1.85;;;;;;;22.93;40.43;95974.91;5025939;28;20021;-76
2021/10/20 10:24:12;;;;;;;3.50;2.10;;;;;;;22.90;41.00;95959.28;5031796;28;20041;-76
2021/10/20 10:27:05;;;;;;;4.50;1.98;;;;;;;22.93;39.12;95956.16;5027971;28;20033;-78
2021/10/20 10:29:34;;;;;;;5.22;2.88;;;;;;;22.71;38.99;95961.41;5035744;28;20860;-76
2021/10/20 10:32:06;;;;;;;6.35;2.80;;;;;;;23.02;39.32;95941.28;5024172;28;20021;-77
2021/10/20 10:34:37;;;;;;;5.00;2.20;;;;;;;22.77;39.36;95945.16;5031130;28;20029;-76
2021/10/20 10:37:05;;;;;;;2.78;1.67;;;;;;;23.04;38.94;95934.63;5018680;28;20088;-76
2021/10/20 10:39:31;;;;;;;2.95;1.48;;;;;;;22.77;39.06;95928.25;5037892;28;20172;-76
2021/10/20 10:42:00;;;;;;;3.83;1.50;;;;;;;21.97;39.47;95938.06;5035238;28;20498;-76
2021/10/20 10:44:27;;;;;;;6.18;2.10;;;;;;;22.07;39.77;95937.47;5030358;28;20084;-76
2021/10/20 10:47:29;;;;;;;2.90;1.40;;;;;;;21.40;40.52;95938.78;5030333;28;20021;-75
2021/10/20 10:49:57;;;;;;;3.20;1.63;;;;;;;21.30;41.01;95943.88;4999916;28;20040;-75
2021/10/20 10:52:35;;;;;;;5.82;1.80;;;;;;;21.75;42.49;95939.75;5028711;28;20514;-75
2021/10/20 10:55:20;;;;;;;3.67;1.90;;;;;;;21.49;42.04;95943.75;5028316;28;20037;-76
2021/10/20 10:57:48;;;;;;;3.20;1.80;;;;;;;21.20;41.48;95949.00;5017124;28;20030;-75
2021/10/20 11:00:17;;;;;;;3.10;1.67;;;;;;;21.32;41.58;95944.44;5011797;28;20032;-75
2021/10/20 11:03:16;;;;;;;2.78;1.50;;;;;;;21.15;43.47;95956.88;5013971;28;20026;-75
2021/10/20 11:05:51;;;;;;;5.00;2.05;;;;;;;20.76;43.51;95947.66;5075130;28;20029;-76
2021/10/20 11:08:17;;;;;;;2.83;1.60;;;;;;;20.54;43.40;95948.22;5022281;28;20034;-75
2021/10/20 11:10:43;;;;;;;3.92;1.67;;;;;;;20.25;43.68;95939.16;5028975;28;20781;-75
2021/10/20 11:13:12;;;;;;;4.90;1.83;;;;;;;20.17;44.36;95931.47;5021969;28;20060;-76
2021/10/20 11:15:38;;;;;;;5.60;2.08;;;;;;;20.20;44.60;95929.16;5033862;28;20656;-75
2021/10/20 11:18:05;;;;;;;4.07;1.70;;;;;;;20.27;44.59;95931.75;5038441;28;20032;-75
2021/10/20 11:20:34;;;;;;;4.05;1.95;;;;;;;20.59;44.40;95927.00;5023861;28;20109;-75
2021/10/20 11:23:09;;;;;;;4.43;2.30;;;;;;;20.73;44.16;95927.59;5033478;28;20386;-75
2021/10/20 11:25:40;;;;;;;5.70;2.22;;;;;;;21.25;43.98;95918.88;5027924;28;20030;-75
2021/10/20 11:28:07;;;;;;;3.40;2.00;;;;;;;21.12;44.35;95919.91;5032238;28;20494;-75
2021/10/20 11:30:35;;;;;;;4.20;2.00;;;;;;;21.20;44.33;95906.22;5033704;28;20052;-74
2021/10/20 11:33:05;;;;;;;3.53;2.13;;;;;;;20.70;44.40;95901.31;5037346;28;20033;-75
2021/10/20 11:35:32;;;;;;;5.65;2.00;;;;;;;20.66;45.19;95910.84;5044780;28;20409;-75
2021/10/20 11:38:06;;;;;;;5.65;2.03;;;;;;;20.45;44.49;95912.97;5036260;28;20025;-75